createdAt,value
2023-04-13T00:00:54.146Z,99621.22
2023-04-13T00:03:22.092Z,99615.13
2023-04-13T00:05:53.075Z,99621.13
2023-04-13T00:08:23.353Z,99608.06
2023-04-13T00:10:51.259Z,99616.63
2023-04-13T00:13:18.998Z,99611.28
2023-04-13T00:15:47.083Z,99620.72
2023-04-13T00:18:14.621Z,99613.66
2023-04-13T00:20:43.642Z,99621.38
2023-04-13T00:23:11.899Z,99622.91
2023-04-13T00:25:39.330Z,99620.19
2023-04-13T00:28:07.299Z,99630.56
2023-04-13T00:30:35.027Z,99635.53
2023-04-13T00:33:06.126Z,99621.63
2023-04-13T00:35:34.012Z,99629.97
2023-04-13T00:38:03.081Z,99630.00
2023-04-13T00:40:31.144Z,99630.94
2023-04-13T00:43:00.743Z,99629.97
2023-04-13T00:45:28.434Z,99629.16
2023-04-13T00:47:58.108Z,99628.97
2023-04-13T00:50:25.962Z,99627.03
2023-04-13T00:52:53.799Z,99629.84
2023-04-13T00:55:22.075Z,99632.16
2023-04-13T00:57:53.500Z,99631.34
2023-04-13T01:00:22.059Z,99643.50
2023-04-13T01:02:52.764Z,99641.50
2023-04-13T01:05:21.573Z,99630.41
2023-04-13T01:08:26.133Z,99639.97
2023-04-13T01:11:01.108Z,99639.69
2023-04-13T01:13:31.624Z,99626.69
2023-04-13T01:16:04.198Z,99641.38
2023-04-13T01:18:39.515Z,99637.72
2023-04-13T01:21:14.359Z,99640.31
2023-04-13T01:24:03.671Z,99632.38
2023-04-13T01:26:52.465Z,99646.25
2023-04-13T01:29:20.668Z,99636.59
2023-04-13T01:31:50.769Z,99639.38
2023-04-13T01:34:18.572Z,99634.97
2023-04-13T01:36:46.759Z,99641.59
2023-04-13T01:39:21.752Z,99634.84
2023-04-13T01:41:58.489Z,99638.28
2023-04-13T01:44:33.042Z,99634.84
2023-04-13T01:47:16.411Z,99631.19
2023-04-13T01:50:18.243Z,99626.78
2023-04-13T01:52:55.422Z,99635.38
2023-04-13T01:55:24.149Z,99636.06
2023-04-13T01:57:58.610Z,99636.88
2023-04-13T02:00:33.407Z,99639.31
2023-04-13T02:03:05.229Z,99640.94
2023-04-13T02:05:34.175Z,99636.69
2023-04-13T02:08:03.870Z,99639.84
2023-04-13T02:10:34.692Z,99647.66
2023-04-13T02:13:04.195Z,99635.34
2023-04-13T02:15:36.116Z,99638.09
2023-04-13T02:18:04.929Z,99630.34
2023-04-13T02:20:45.310Z,99636.63
2023-04-13T02:23:16.745Z,99636.44
2023-04-13T02:25:47.856Z,99635.59
2023-04-13T02:28:18.133Z,99638.94
2023-04-13T02:30:47.340Z,99640.50
2023-04-13T02:33:15.013Z,99634.13
2023-04-13T02:35:42.613Z,99634.88
2023-04-13T02:38:11.805Z,99632.94
2023-04-13T02:40:44.050Z,99632.00
2023-04-13T02:43:14.136Z,99640.50
2023-04-13T02:45:42.868Z,99638.94
2023-04-13T02:48:21.433Z,99633.25
2023-04-13T02:50:49.340Z,99633.19
2023-04-13T02:53:22.291Z,99633.16
2023-04-13T02:55:55.702Z,99638.41
2023-04-13T02:58:24.254Z,99637.66
2023-04-13T03:00:58.916Z,99636.06
2023-04-13T03:03:26.967Z,99636.25
2023-04-13T03:05:54.582Z,99646.78
2023-04-13T03:08:27.560Z,99646.16
2023-04-13T03:11:28.230Z,99658.25
2023-04-13T03:14:21.543Z,99654.75
2023-04-13T03:16:55.488Z,99654.88
2023-04-13T03:19:27.228Z,99653.84
2023-04-13T03:21:55.067Z,99651.47
2023-04-13T03:24:27.550Z,99656.94
2023-04-13T03:26:58.129Z,99661.03
2023-04-13T03:29:34.373Z,99663.47
2023-04-13T03:32:02.044Z,99662.19
2023-04-13T03:34:33.222Z,99662.28
2023-04-13T03:37:06.472Z,99659.69
2023-04-13T03:39:34.028Z,99669.97
2023-04-13T03:42:02.611Z,99659.56
2023-04-13T03:44:31.579Z,99659.53
2023-04-13T03:47:01.333Z,99660.69
2023-04-13T03:49:34.695Z,99663.53
2023-04-13T03:52:02.544Z,99652.41
2023-04-13T03:54:36.131Z,99654.16
2023-04-13T03:57:05.278Z,99657.06
2023-04-13T03:59:34.540Z,99653.69
2023-04-13T04:02:04.141Z,99657.91
2023-04-13T04:04:35.090Z,99659.72
2023-04-13T04:07:02.695Z,99650.25
2023-04-13T04:09:30.213Z,99671.28
2023-04-13T04:11:58.166Z,99656.72
2023-04-13T04:14:37.533Z,99669.66
2023-04-13T04:17:14.187Z,99668.25
2023-04-13T04:19:41.886Z,99664.19
2023-04-13T04:22:10.083Z,99674.03
2023-04-13T04:24:42.565Z,99668.19
2023-04-13T04:27:10.324Z,99656.50
2023-04-13T04:29:38.322Z,99656.69
2023-04-13T04:32:24.243Z,99658.69
2023-04-13T04:34:53.717Z,99660.38
2023-04-13T04:37:23.504Z,99663.00
2023-04-13T04:40:08.336Z,99667.34
2023-04-13T04:42:39.345Z,99670.03
2023-04-13T04:45:17.493Z,99665.84
2023-04-13T04:47:50.487Z,99662.41
2023-04-13T04:50:21.694Z,99664.31
2023-04-13T04:52:55.802Z,99670.53
2023-04-13T04:55:25.397Z,99667.38
2023-04-13T04:57:53.245Z,99665.06
2023-04-13T05:00:26.388Z,99664.28
2023-04-13T05:03:02.920Z,99672.25
2023-04-13T05:05:31.007Z,99657.66
2023-04-13T05:08:03.459Z,99665.53
2023-04-13T05:10:31.270Z,99658.66
2023-04-13T05:12:59.120Z,99658.19
2023-04-13T05:15:28.373Z,99663.59
2023-04-13T05:17:56.545Z,99658.66
2023-04-13T05:20:28.108Z,99655.25
2023-04-13T05:23:05.660Z,99652.91
2023-04-13T05:25:40.894Z,99654.06
2023-04-13T05:28:16.853Z,99645.75
2023-04-13T05:30:45.517Z,99645.94
2023-04-13T05:33:13.025Z,99643.41
2023-04-13T05:35:42.388Z,99653.97
2023-04-13T05:38:10.744Z,99642.69
2023-04-13T05:40:39.471Z,99645.34
2023-04-13T05:43:07.684Z,99643.75
2023-04-13T05:45:41.170Z,99636.06
2023-04-13T05:48:13.909Z,99638.69
2023-04-13T05:50:43.863Z,99644.94
2023-04-13T05:53:12.860Z,99645.16
2023-04-13T05:55:48.351Z,99641.16
2023-04-13T05:58:19.064Z,99641.56
2023-04-13T06:00:49.196Z,99641.88
2023-04-13T06:03:27.567Z,99630.88
2023-04-13T06:05:56.810Z,99629.41
2023-04-13T06:08:24.484Z,99626.13
2023-04-13T06:10:52.436Z,99626.31
2023-04-13T06:13:19.899Z,99621.28
2023-04-13T06:15:47.412Z,99619.59
2023-04-13T06:18:15.036Z,99633.44
2023-04-13T06:20:42.905Z,99623.88
2023-04-13T06:23:10.495Z,99623.94
2023-04-13T06:25:38.822Z,99615.25
2023-04-13T06:28:07.723Z,99615.25
2023-04-13T06:30:40.201Z,99617.84
2023-04-13T06:33:11.492Z,99615.25
2023-04-13T06:35:41.147Z,99623.03
2023-04-13T06:38:10.275Z,99619.50
2023-04-13T06:40:50.302Z,99620.44
2023-04-13T06:43:29.024Z,99630.81
2023-04-13T06:46:18.351Z,99622.19
2023-04-13T06:48:49.998Z,99622.28
2023-04-13T06:51:21.934Z,99618.03
2023-04-13T06:53:51.572Z,99632.84
2023-04-13T06:56:19.164Z,99625.91
2023-04-13T06:58:47.282Z,99625.84
2023-04-13T07:01:16.450Z,99623.25
2023-04-13T07:03:45.485Z,99621.53
2023-04-13T07:06:15.795Z,99626.72
2023-04-13T07:08:43.756Z,99626.69
2023-04-13T07:11:11.553Z,99634.38
2023-04-13T07:13:40.296Z,99622.97
2023-04-13T07:16:12.442Z,99635.03
2023-04-13T07:18:44.007Z,99629.75
2023-04-13T07:21:11.944Z,99642.66
2023-04-13T07:23:56.321Z,99634.59
2023-04-13T07:26:24.694Z,99639.22
2023-04-13T07:28:52.152Z,99649.84
2023-04-13T07:31:23.457Z,99648.25
2023-04-13T07:33:54.536Z,99641.38
2023-04-13T07:36:29.961Z,99644.97
2023-04-13T07:39:04.104Z,99638.00
2023-04-13T07:41:33.357Z,99644.09
2023-04-13T07:44:05.572Z,99643.19
2023-04-13T07:46:54.478Z,99656.22
2023-04-13T07:49:40.333Z,99642.34
2023-04-13T07:52:56.613Z,99635.22
2023-04-13T08:10:47.925Z,99621.09
2023-04-13T08:13:42.988Z,99628.00
2023-04-13T08:16:34.440Z,99615.75
2023-04-13T08:19:05.276Z,99628.75
2023-04-13T08:21:38.696Z,99628.66
2023-04-13T08:24:06.751Z,99619.78
2023-04-13T08:26:34.621Z,99618.09
2023-04-13T08:29:52.293Z,99624.00
2023-04-13T08:32:29.202Z,99621.19
2023-04-13T08:38:14.156Z,99617.47
2023-04-13T08:41:44.254Z,99612.28
2023-04-13T08:49:07.458Z,99614.56
2023-04-13T08:51:49.233Z,99605.41
2023-04-13T08:54:35.386Z,99600.00
2023-04-13T08:58:24.637Z,99612.25
2023-04-13T09:01:04.886Z,99611.53
2023-04-13T09:04:20.631Z,99613.63
2023-04-13T09:07:26.932Z,99617.34
2023-04-13T09:10:16.521Z,99603.03
2023-04-13T09:13:18.638Z,99602.53
2023-04-13T09:16:39.138Z,99606.84
2023-04-13T09:19:44.360Z,99619.06
2023-04-13T09:22:16.364Z,99611.59
2023-04-13T09:24:44.166Z,99623.31
2023-04-13T09:27:23.614Z,99605.59
2023-04-13T09:29:53.171Z,99606.53
2023-04-13T09:32:25.886Z,99606.75
2023-04-13T09:35:04.818Z,99608.03
2023-04-13T09:37:32.933Z,99605.53
2023-04-13T09:40:10.896Z,99611.00
2023-04-13T09:42:40.549Z,99588.78
2023-04-13T09:45:08.986Z,99595.75
2023-04-13T09:47:38.769Z,99599.72
2023-04-13T09:50:31.499Z,99595.88
2023-04-13T09:53:04.642Z,99601.84
2023-04-13T09:55:39.157Z,99595.22
2023-04-13T09:58:17.640Z,99599.47
2023-04-13T10:00:50.289Z,99587.13
2023-04-13T10:03:22.604Z,99590.59
2023-04-13T10:05:59.580Z,99591.22
2023-04-13T10:08:37.950Z,99591.69
2023-04-13T10:11:14.874Z,99578.59
2023-04-13T10:13:53.846Z,99589.41
2023-04-13T10:16:43.021Z,99586.78
2023-04-13T10:19:14.552Z,99584.59
2023-04-13T10:21:46.249Z,99575.56
2023-04-13T10:24:14.532Z,99579.81
2023-04-13T10:26:44.202Z,99580.13
2023-04-13T10:29:14.658Z,99572.03
2023-04-13T10:31:47.218Z,99577.31
2023-04-13T10:34:24.596Z,99574.44
2023-04-13T10:36:55.374Z,99573.81
2023-04-13T10:39:30.660Z,99582.66
2023-04-13T10:42:01.728Z,99573.75
2023-04-13T10:44:47.788Z,99574.44
2023-04-13T10:47:17.506Z,99571.31
2023-04-13T10:49:48.475Z,99566.44
2023-04-13T10:52:16.905Z,99565.16
2023-04-13T10:54:45.191Z,99559.88
2023-04-13T10:57:13.603Z,99581.75
2023-04-13T10:59:57.996Z,99577.75
2023-04-13T11:05:42.124Z,99586.03
2023-04-13T11:11:48.065Z,99578.25
2023-04-13T11:14:59.248Z,99585.97
2023-04-13T11:18:13.326Z,99573.03
2023-04-13T11:21:07.932Z,99566.84
2023-04-13T11:23:56.610Z,99576.81
2023-04-13T11:26:34.914Z,99576.72
2023-04-13T11:29:04.058Z,99594.78
2023-04-13T11:31:42.470Z,99580.16
2023-04-13T11:34:14.012Z,99573.00
2023-04-13T11:37:02.691Z,99569.75
2023-04-13T11:40:32.412Z,99573.84
2023-04-13T11:43:03.862Z,99563.69
2023-04-13T11:45:59.341Z,99562.16
2023-04-13T11:48:27.516Z,99571.47
2023-04-13T11:54:08.190Z,99558.53
2023-04-13T11:56:38.585Z,99570.22
2023-04-13T11:59:44.934Z,99568.13
2023-04-13T12:02:22.022Z,99572.00
2023-04-13T12:04:51.402Z,99566.50
2023-04-13T12:07:19.784Z,99558.03
2023-04-13T12:15:15.057Z,99563.47
2023-04-13T12:17:58.156Z,99557.63
2023-04-13T12:20:39.021Z,99548.41
2023-04-13T12:23:27.909Z,99557.69
2023-04-13T12:25:56.129Z,99563.53
2023-04-13T12:28:30.734Z,99555.16
2023-04-13T12:31:07.577Z,99558.41
2023-04-13T12:33:35.715Z,99541.97
2023-04-13T12:36:03.524Z,99543.31
2023-04-13T12:38:32.846Z,99538.22
2023-04-13T12:41:02.030Z,99539.50
2023-04-13T12:43:29.804Z,99527.50
2023-04-13T12:45:57.321Z,99539.56
2023-04-13T12:48:24.822Z,99533.53
2023-04-13T12:50:54.120Z,99527.88
2023-04-13T12:53:21.818Z,99515.56
2023-04-13T12:55:51.514Z,99530.50
2023-04-13T12:58:18.996Z,99526.81
2023-04-13T13:00:46.573Z,99519.28
2023-04-13T13:03:17.473Z,99533.78
2023-04-13T13:05:45.369Z,99538.19
2023-04-13T13:08:13.054Z,99533.00
2023-04-13T13:10:43.278Z,99538.63
2023-04-13T13:13:11.342Z,99554.88
2023-04-13T13:19:57.744Z,99529.63
2023-04-13T13:22:25.435Z,99529.06
2023-04-13T13:24:52.934Z,99536.97
2023-04-13T13:27:58.644Z,99547.22
2023-04-13T13:30:10.507Z,99555.53
2023-04-13T13:32:38.111Z,99539.28
2023-04-13T13:35:28.127Z,99549.84
2023-04-13T13:38:29.584Z,99543.00
2023-04-13T13:41:09.364Z,99558.69
2023-04-13T13:47:33.228Z,99547.59
2023-04-13T13:50:02.340Z,99545.94
2023-04-13T13:52:36.273Z,99538.13
2023-04-13T13:55:06.936Z,99559.00
2023-04-13T13:57:34.471Z,99563.38
2023-04-13T14:00:02.129Z,99563.41
2023-04-13T14:02:39.647Z,99561.69
2023-04-13T14:05:08.297Z,99551.28
2023-04-13T14:07:35.717Z,99562.53
2023-04-13T14:10:03.700Z,99557.28
2023-04-13T14:12:31.224Z,99550.34
2023-04-13T14:14:58.759Z,99559.91
2023-04-13T14:17:26.435Z,99562.47
2023-04-13T14:19:53.978Z,99575.47
2023-04-13T14:22:21.576Z,99572.81
2023-04-13T14:24:51.880Z,99558.91
2023-04-13T14:27:19.404Z,99557.19
2023-04-13T14:29:47.127Z,99569.25
2023-04-13T14:32:14.811Z,99557.91
2023-04-13T14:34:46.212Z,99562.19
2023-04-13T14:37:14.792Z,99567.34
2023-04-13T14:39:42.343Z,99562.97
2023-04-13T14:42:12.285Z,99593.22
2023-04-13T14:44:39.824Z,99568.03
2023-04-13T14:47:09.289Z,99578.41
2023-04-13T14:49:37.455Z,99568.91
2023-04-13T14:52:04.939Z,99574.09
2023-04-13T14:54:32.432Z,99568.84
2023-04-13T14:56:59.948Z,99567.13
2023-04-13T14:59:27.482Z,99567.06
2023-04-13T15:01:55.445Z,99574.00
2023-04-13T15:04:23.369Z,99578.22
2023-04-13T15:06:54.355Z,99583.34
2023-04-13T15:09:22.172Z,99586.69
2023-04-13T15:11:50.654Z,99603.91
2023-04-13T15:14:18.118Z,99590.81
2023-04-13T15:16:45.858Z,99606.34
2023-04-13T15:19:13.394Z,99609.66
2023-04-13T15:21:41.715Z,99608.69
2023-04-13T15:24:11.691Z,99626.78
2023-04-13T15:26:41.119Z,99622.34
2023-04-13T15:29:09.175Z,99637.13
2023-04-13T15:31:38.347Z,99652.66
2023-04-13T15:34:08.613Z,99650.78
2023-04-13T15:36:36.610Z,99635.13
2023-04-13T15:39:06.927Z,99642.81
2023-04-13T15:41:34.599Z,99639.22
2023-04-13T15:44:03.420Z,99631.28
2023-04-13T15:46:32.705Z,99646.81
2023-04-13T15:49:00.565Z,99638.06
2023-04-13T15:51:28.417Z,99637.94
2023-04-13T15:53:55.918Z,99649.13
2023-04-13T15:56:23.455Z,99631.75
2023-04-13T15:58:50.906Z,99660.03
2023-04-13T16:01:18.497Z,99646.97
2023-04-13T16:03:46.289Z,99651.16
2023-04-13T16:15:26.373Z,99686.13
2023-04-13T16:22:05.709Z,99695.31
2023-04-13T16:28:54.856Z,99718.44
2023-04-13T16:31:22.376Z,99714.66
2023-04-13T16:33:49.847Z,99693.69
2023-04-13T16:36:17.406Z,99717.06
2023-04-13T16:38:46.592Z,99718.84
2023-04-13T16:41:14.177Z,99730.72
2023-04-13T16:43:41.648Z,99720.28
2023-04-13T16:46:09.247Z,99734.06
2023-04-13T16:48:36.801Z,99730.44
2023-04-13T16:51:04.429Z,99737.41
2023-04-13T16:53:31.906Z,99748.53
2023-04-13T16:55:59.524Z,99753.66
2023-04-13T16:58:29.451Z,99758.69
2023-04-13T17:00:57.664Z,99752.44
2023-04-13T17:03:25.385Z,99761.94
2023-04-13T17:05:52.983Z,99762.69
2023-04-13T17:08:21.885Z,99771.13
2023-04-13T17:10:51.210Z,99772.84
2023-04-13T17:13:18.903Z,99764.88
2023-04-13T17:15:46.456Z,99781.28
2023-04-13T17:18:15.634Z,99783.75
2023-04-13T17:20:43.118Z,99777.66
2023-04-13T17:23:10.770Z,99792.88
2023-04-13T17:25:41.652Z,99759.19
2023-04-13T17:28:09.345Z,99787.69
2023-04-13T17:30:36.911Z,99782.53
2023-04-13T17:33:04.748Z,99786.75
2023-04-13T17:35:32.199Z,99788.25
2023-04-13T17:37:59.746Z,99791.63
2023-04-13T17:40:27.381Z,99789.78
2023-04-13T17:42:55.692Z,99787.91
2023-04-13T17:45:23.170Z,99795.84
2023-04-13T17:47:50.654Z,99789.63
2023-04-13T17:50:18.368Z,99794.66
2023-04-13T17:52:45.929Z,99794.56
2023-04-13T17:55:13.718Z,99797.16
2023-04-13T17:57:41.448Z,99815.28
2023-04-13T18:00:09.662Z,99816.84
2023-04-13T18:02:39.456Z,99826.28
2023-04-13T18:05:07.832Z,99822.66
2023-04-13T18:07:37.409Z,99825.97
2023-04-13T18:10:05.909Z,99831.94
2023-04-13T18:12:33.645Z,99830.16
2023-04-13T18:15:01.467Z,99820.75
2023-04-13T18:17:31.157Z,99819.63
2023-04-13T18:19:59.029Z,99833.19
2023-04-13T18:22:27.168Z,99829.84
2023-04-13T18:24:54.704Z,99835.59
2023-04-13T18:27:27.436Z,99825.88
2023-04-13T18:29:55.773Z,99830.63
2023-04-13T18:32:23.954Z,99838.97
2023-04-13T18:34:51.524Z,99839.56
2023-04-13T18:37:19.110Z,99845.41
2023-04-13T18:39:47.560Z,99835.75
2023-04-13T18:42:17.929Z,99846.72
2023-04-13T18:44:45.713Z,99849.22
2023-04-13T18:47:13.321Z,99852.50
2023-04-13T18:49:41.062Z,99848.81
2023-04-13T18:52:08.898Z,99855.84
2023-04-13T18:54:36.665Z,99841.16
2023-04-13T18:57:04.214Z,99843.69
2023-04-13T18:59:31.752Z,99841.03
2023-04-13T19:01:59.370Z,99857.09
2023-04-13T19:04:27.350Z,99857.69
2023-04-13T19:06:54.814Z,99861.03
2023-04-13T19:09:22.414Z,99858.06
2023-04-13T19:11:53.513Z,99861.81
2023-04-13T19:14:21.157Z,99875.41
2023-04-13T19:16:52.625Z,99870.72
2023-04-13T19:19:20.530Z,99867.84
2023-04-13T19:21:48.055Z,99859.94
2023-04-13T19:24:16.250Z,99860.47
2023-04-13T19:26:43.817Z,99871.41
2023-04-13T19:29:13.121Z,99868.78
2023-04-13T19:31:44.243Z,99866.72
2023-04-13T19:34:12.474Z,99876.84
2023-04-13T19:36:40.901Z,99872.25
2023-04-13T19:39:10.239Z,99871.16
2023-04-13T19:41:39.185Z,99876.31
2023-04-13T19:44:08.877Z,99876.16
2023-04-13T19:46:36.790Z,99889.75
2023-04-13T19:49:04.468Z,99886.22
2023-04-13T19:51:37.439Z,99892.03
2023-04-13T19:54:06.106Z,99902.09
2023-04-13T19:56:36.519Z,99893.38
2023-04-13T19:59:06.272Z,99902.78
2023-04-13T20:01:34.644Z,99899.25
2023-04-13T20:04:06.879Z,99913.75
2023-04-13T20:17:34.661Z,99915.44
2023-04-13T20:20:10.664Z,99912.75
2023-04-13T20:22:41.027Z,99933.69
2023-04-13T20:29:13.903Z,99924.97
2023-04-13T20:32:07.223Z,99919.38
2023-04-13T20:34:35.134Z,99921.94
2023-04-13T20:37:02.924Z,99908.78
2023-04-13T20:39:30.643Z,99927.44
2023-04-13T20:42:00.924Z,99939.28
2023-04-13T20:44:29.353Z,99930.28
2023-04-13T20:46:57.594Z,99930.56
2023-04-13T20:49:25.184Z,99936.63
2023-04-13T20:51:57.351Z,99941.59
2023-04-13T20:54:24.989Z,99942.22
2023-04-13T20:56:52.467Z,99942.09
2023-04-13T20:59:19.928Z,99942.97
2023-04-13T21:01:49.061Z,99943.69
2023-04-13T21:04:17.283Z,99944.44
2023-04-13T21:06:45.125Z,99957.41
2023-04-13T21:09:12.594Z,99951.53
2023-04-13T21:11:41.494Z,99952.09
2023-04-13T21:14:08.972Z,99950.72
2023-04-13T21:16:36.715Z,99956.66
2023-04-13T21:19:04.233Z,99949.53
2023-04-13T21:21:32.824Z,99958.59
2023-04-13T21:24:00.747Z,99948.66
2023-04-13T21:26:28.601Z,99955.41
2023-04-13T21:28:56.322Z,99958.53
2023-04-13T21:31:23.852Z,99959.94
2023-04-13T21:33:51.449Z,99959.94
2023-04-13T21:38:51.626Z,99966.13
2023-04-13T21:41:20.572Z,99963.16
2023-04-13T21:43:48.246Z,99967.88
2023-04-13T21:46:16.292Z,99961.66
2023-04-13T21:48:43.910Z,99958.16
2023-04-13T21:51:11.356Z,99969.81
2023-04-13T21:53:39.760Z,99947.56
2023-04-13T21:56:09.819Z,99972.31
2023-04-13T21:58:44.581Z,99972.69
2023-04-13T22:01:13.698Z,99969.78
2023-04-13T22:03:45.788Z,99977.53
2023-04-13T22:06:14.134Z,99985.84
2023-04-13T22:08:41.651Z,99971.59
2023-04-13T22:11:09.286Z,99974.38
2023-04-13T22:13:37.764Z,99991.50
2023-04-13T22:16:05.634Z,99986.97
2023-04-13T22:18:33.150Z,99993.63
2023-04-13T22:21:00.709Z,99979.34
2023-04-13T22:23:29.235Z,99984.59
2023-04-13T22:26:03.909Z,99987.59
2023-04-13T22:28:33.017Z,99976.81
2023-04-13T22:31:10.138Z,99962.94
2023-04-13T22:33:38.437Z,99988.84
2023-04-13T22:36:16.660Z,99978.34
2023-04-13T22:38:44.573Z,99989.06
2023-04-13T22:41:12.204Z,99978.16
2023-04-13T22:43:39.690Z,99968.72
2023-04-13T22:46:07.999Z,99984.22
2023-04-13T22:48:35.724Z,99971.75
2023-04-13T22:51:06.241Z,99978.69
2023-04-13T22:53:33.837Z,99981.13
2023-04-13T22:56:01.509Z,99985.50
2023-04-13T22:58:29.141Z,99993.97
2023-04-13T23:00:56.945Z,99970.00
2023-04-13T23:03:24.604Z,99982.81
2023-04-13T23:05:52.477Z,99999.66
2023-04-13T23:08:20.015Z,99987.13
2023-04-13T23:10:48.133Z,99975.03
2023-04-13T23:13:15.909Z,100004.03
2023-04-13T23:15:43.516Z,99985.59
2023-04-13T23:18:11.035Z,99998.13
2023-04-13T23:20:38.614Z,99999.59
2023-04-13T23:23:06.205Z,100001.00
2023-04-13T23:25:33.717Z,100006.78
2023-04-13T23:28:01.214Z,100002.38
2023-04-13T23:30:28.730Z,100017.97
2023-04-13T23:32:56.260Z,100028.31
2023-04-13T23:35:26.145Z,100027.91
2023-04-13T23:37:53.735Z,100032.81
2023-04-13T23:40:21.224Z,100020.16
2023-04-13T23:42:48.777Z,100034.25
2023-04-13T23:45:16.235Z,100035.94
2023-04-13T23:47:43.731Z,100049.16
2023-04-13T23:50:11.423Z,100036.84
2023-04-13T23:52:38.848Z,100047.28
2023-04-13T23:55:06.735Z,100034.41
2023-04-13T23:57:34.691Z,100047.81
